TIV weather

Tivat Airport
Tivat, Tivat Municipality, Montenegro

Public forecast

Using degrees Celsius for public forecast. Weather courtesy of forecast.io.

Current aviation weather report (METAR) for Tivat Airport

Retrieved 2020/02/19 21:30 UTC (22 minutes ago):

LYTV 192130Z VRB01KT CAVOK 06/05 Q1015

Aviation forecast (TAF) for Tivat Airport

Retrieved 2020/02/19 18:21 UTC (4 hours ago):

TAF LYTV 191700Z 1918/2018 16008KT 9999 SCT033 OVC080 TX14/2012Z TN06/2004Z TEMPO 1918/2006 5000 RA PROB40 TEMPO 1920/2004 3000 TSRA FEW027CB BKN033 BECMG 2004/2006 02018G28KT